Time;durP1;ratioP1;P1;durP2;ratioP2;P2;SDS_P1;SDS_P2;PMS_P1;PMS_P2;Temp;Humidity;BMP_temperature;BMP_pressure;BME280_temperature;BME280_humidity;BME280_pressure;Samples;Min_cycle;Max_cycle;Signal;HPM_P1;HPM_P2
2022/11/08 00:02:26;;;;;;;;;31.33;28.67;;;;;9.32;83.62;99308.53;5032330;28;45382;-79
2022/11/08 00:04:51;;;;;;;;;30.00;25.33;;;;;9.31;83.79;99297.16;5036796;28;45393;-79
2022/11/08 00:15:32;;;;;;;;;31.67;28.00;;;;;9.34;83.66;99283.03;5036059;28;45440;-79
2022/11/08 00:17:57;;;;;;;;;28.33;24.67;;;;;9.33;83.78;99284.81;5038240;28;45460;-79
2022/11/08 00:20:22;;;;;;;;;24.67;23.33;;;;;9.36;83.72;99287.34;5036938;28;45425;-80
2022/11/08 00:22:48;;;;;;;;;25.67;23.33;;;;;9.38;83.76;99289.94;5034081;28;45590;-79
2022/11/08 00:25:13;;;;;;;;;29.00;25.33;;;;;9.38;83.59;99282.88;5036455;28;45468;-79
2022/11/08 00:27:39;;;;;;;;;25.00;24.00;;;;;9.40;83.16;99293.34;5036400;28;45456;-79
2022/11/08 00:30:05;;;;;;;;;27.67;24.33;;;;;9.39;83.40;99300.38;5034289;28;45576;-80
2022/11/08 00:32:30;;;;;;;;;27.67;23.67;;;;;9.40;83.41;99293.34;5036589;28;45504;-80
2022/11/08 00:34:55;;;;;;;;;25.33;23.00;;;;;9.39;83.21;99296.88;5039939;28;45504;-79
2022/11/08 00:37:21;;;;;;;;;28.00;24.33;;;;;9.40;83.36;99302.09;5034351;28;45554;-79
2022/11/08 00:39:47;;;;;;;;;25.33;25.33;;;;;9.41;83.13;99302.97;5034108;28;45475;-79
2022/11/08 00:42:13;;;;;;;;;28.67;24.67;;;;;9.39;83.20;99291.63;5038000;28;45421;-79
2022/11/08 00:44:38;;;;;;;;;32.67;29.67;;;;;9.39;83.06;99297.75;5023364;28;45310;-79
2022/11/08 00:47:04;;;;;;;;;31.67;26.33;;;;;9.38;83.04;99305.72;5035959;28;45381;-80
2022/11/08 00:49:30;;;;;;;;;24.33;22.00;;;;;9.37;83.23;99301.38;5041947;28;45456;-79
2022/11/08 00:51:55;;;;;;;;;27.00;25.00;;;;;9.33;82.96;99291.84;5042881;28;45535;-80
2022/11/08 00:54:21;;;;;;;;;24.33;21.00;;;;;9.32;83.15;99293.59;5035071;28;45376;-79
2022/11/08 00:56:48;;;;;;;;;28.67;25.33;;;;;9.31;83.18;99285.75;5043870;28;45456;-80
2022/11/08 00:59:15;;;;;;;;;31.67;28.33;;;;;9.29;83.24;99283.19;5034310;28;45808;-80
2022/11/08 01:01:41;;;;;;;;;29.00;26.33;;;;;9.29;83.40;99279.69;5036190;28;45415;-80
2022/11/08 01:04:09;;;;;;;;;31.33;26.33;;;;;9.27;83.36;99277.09;5038352;28;45455;-79
2022/11/08 01:06:34;;;;;;;;;32.33;27.67;;;;;9.26;83.60;99279.78;5034828;28;45358;-80
2022/11/08 01:09:00;;;;;;;;;29.33;23.67;;;;;9.24;83.00;99278.97;5029391;28;45414;-80
2022/11/08 01:11:27;;;;;;;;;26.33;23.33;;;;;9.21;83.24;99274.69;5031411;28;45587;-79
2022/11/08 01:13:56;;;;;;;;;32.33;29.00;;;;;9.17;83.53;99265.16;5028690;28;45343;-80
2022/11/08 01:16:24;;;;;;;;;37.00;31.67;;;;;9.15;83.58;99264.34;5036071;28;45426;-79
2022/11/08 01:18:51;;;;;;;;;22.00;22.00;;;;;9.11;83.67;99262.72;5036162;28;45370;-80
2022/11/08 01:21:17;;;;;;;;;28.00;25.00;;;;;9.09;83.52;99267.16;5039079;28;45442;-80
2022/11/08 01:23:44;;;;;;;;;27.67;26.33;;;;;9.07;83.80;99266.34;5044501;28;45534;-80
2022/11/08 01:26:16;;;;;;;;;25.00;22.00;;;;;9.05;83.84;99270.78;5033048;28;45479;-80
2022/11/08 01:28:42;;;;;;;;;27.00;25.67;;;;;9.02;83.86;99277.03;5039580;28;45400;-80
2022/11/08 01:31:29;;;;;;;;;29.00;25.67;;;;;9.02;83.79;99284.06;5030219;28;45314;-80
2022/11/08 01:33:55;;;;;;;;;33.00;27.67;;;;;9.01;83.81;99269.19;5031136;28;45504;-77
2022/11/08 01:36:23;;;;;;;;;29.67;27.00;;;;;9.01;83.91;99274.44;5035811;28;45388;-79
2022/11/08 01:38:48;;;;;;;;;26.67;25.33;;;;;8.98;83.92;99275.41;5027776;28;45341;-80
2022/11/08 01:41:16;;;;;;;;;27.33;23.33;;;;;8.97;84.03;99268.41;5028825;28;46098;-79
2022/11/08 01:43:43;;;;;;;;;25.00;25.00;;;;;8.96;84.13;99276.34;5026607;28;45397;-79
2022/11/08 01:46:09;;;;;;;;;25.00;24.33;;;;;8.95;84.12;99274.63;5035354;28;45468;-79
2022/11/08 01:48:38;;;;;;;;;29.33;25.00;;;;;8.94;84.18;99279.03;5033189;28;45353;-79
2022/11/08 01:51:08;;;;;;;;;37.67;26.00;;;;;8.88;84.64;99283.63;5035321;28;45428;-79
2022/11/08 01:53:33;;;;;;;;;27.00;23.33;;;;;8.84;84.67;99277.59;5023496;28;45988;-79
2022/11/08 01:56:00;;;;;;;;;33.33;24.33;;;;;8.81;84.57;99259.28;5052795;28;45445;-79
2022/11/08 01:58:30;;;;;;;;;23.00;23.00;;;;;8.80;84.65;99254.94;5037637;28;45527;-79
2022/11/08 02:00:58;;;;;;;;;24.00;23.67;;;;;8.79;85.06;99249.72;5032366;28;48543;-79
2022/11/08 02:03:24;;;;;;;;;28.67;22.67;;;;;8.78;85.04;99245.38;5037203;28;45969;-79
2022/11/08 02:05:49;;;;;;;;;26.00;25.67;;;;;8.76;85.04;99250.69;5051250;28;45478;-79
2022/11/08 02:08:23;;;;;;;;;21.67;18.33;;;;;8.75;85.25;99238.44;5041547;28;45490;-79
2022/11/08 02:10:52;;;;;;;;;27.00;24.00;;;;;8.74;84.95;99242.84;5025603;28;45767;-79
2022/11/08 02:13:23;;;;;;;;;31.00;26.67;;;;;8.73;84.82;99250.75;5041550;28;45365;-79
2022/11/08 02:15:49;;;;;;;;;29.00;26.00;;;;;8.72;84.87;99262.19;5030727;28;45511;-79
2022/11/08 02:18:16;;;;;;;;;20.33;20.00;;;;;8.69;84.88;99250.03;5029977;28;45433;-79
2022/11/08 02:21:25;;;;;;;;;26.33;23.67;;;;;8.68;85.32;99245.66;5040630;28;45647;-79
2022/11/08 02:23:54;;;;;;;;;26.33;23.67;;;;;8.66;85.20;99244.84;5032156;28;45491;-79
2022/11/08 02:26:27;;;;;;;;;24.33;23.67;;;;;8.66;85.03;99239.59;5028719;28;45362;-80
2022/11/08 02:28:53;;;;;;;;;28.00;25.67;;;;;8.65;85.10;99234.38;5026710;28;45369;-79
2022/11/08 02:31:19;;;;;;;;;26.67;22.33;;;;;8.65;85.14;99221.25;5034033;28;45373;-79
2022/11/08 02:33:46;;;;;;;;;28.00;25.67;;;;;8.64;85.11;99202.00;5032193;28;45377;-79
2022/11/08 02:36:23;;;;;;;;;19.67;19.67;;;;;8.64;85.02;99206.38;5027301;28;45398;-79
2022/11/08 02:38:54;;;;;;;;;28.00;23.67;;;;;8.63;84.87;99207.28;5026319;28;45382;-79
2022/11/08 02:41:19;;;;;;;;;28.67;26.33;;;;;8.61;84.93;99201.22;5031795;28;46983;-79
2022/11/08 02:43:45;;;;;;;;;29.00;26.00;;;;;8.60;84.73;99200.34;5034016;28;45510;-79
2022/11/08 02:46:10;;;;;;;;;25.00;22.00;;;;;8.60;84.70;99215.25;5033854;28;45847;-79
2022/11/08 02:48:35;;;;;;;;;20.33;19.67;;;;;8.60;84.60;99220.50;5024376;28;45396;-79
2022/11/08 02:51:01;;;;;;;;;31.33;25.33;;;;;8.58;84.14;99217.94;5028246;28;46011;-79
2022/11/08 02:53:26;;;;;;;;;25.67;22.00;;;;;8.54;85.25;99215.47;5034647;28;45415;-79
2022/11/08 02:55:52;;;;;;;;;24.00;23.33;;;;;8.48;85.43;99216.50;5037922;28;45401;-79
2022/11/08 02:58:17;;;;;;;;;28.00;25.33;;;;;8.45;85.30;99219.22;5031367;28;45371;-79
2022/11/08 03:00:43;;;;;;;;;26.00;25.00;;;;;8.43;85.57;99214.91;5033849;28;46185;-79
2022/11/08 03:03:08;;;;;;;;;26.33;24.33;;;;;8.38;85.97;99212.41;5033298;28;45441;-78
2022/11/08 03:05:33;;;;;;;;;27.67;26.67;;;;;8.33;86.49;99209.09;5026154;28;45913;-79
2022/11/08 03:07:59;;;;;;;;;31.33;24.67;;;;;8.29;86.46;99204.78;5031618;28;45619;-79
2022/11/08 03:10:26;;;;;;;;;24.67;24.00;;;;;8.27;86.25;99196.94;5026052;28;45366;-79
2022/11/08 03:13:00;;;;;;;;;23.33;20.00;;;;;8.29;86.10;99192.50;5042342;28;45388;-79
2022/11/08 03:15:26;;;;;;;;;26.67;23.67;;;;;8.31;86.37;99192.47;5023183;28;45504;-79
2022/11/08 03:17:52;;;;;;;;;21.00;19.00;;;;;8.33;86.67;99209.94;5033483;28;45387;-79
2022/11/08 03:20:17;;;;;;;;;24.00;23.33;;;;;8.37;86.19;99210.72;5033870;28;45390;-79
2022/11/08 03:22:43;;;;;;;;;24.67;20.33;;;;;8.36;86.91;99222.13;5034263;28;45334;-80
2022/11/08 03:25:08;;;;;;;;;25.33;22.33;;;;;8.28;86.73;99227.56;5027816;28;45417;-79
2022/11/08 03:27:34;;;;;;;;;30.00;23.33;;;;;8.21;86.22;99236.50;5030729;28;45468;-79
2022/11/08 03:29:59;;;;;;;;;34.00;23.67;;;;;8.15;87.41;99222.72;5022035;28;46315;-80
2022/11/08 03:32:25;;;;;;;;;26.67;26.67;;;;;8.06;87.31;99237.81;5037286;28;45498;-79
2022/11/08 03:34:50;;;;;;;;;23.00;22.33;;;;;8.00;87.69;99240.63;5041440;28;45396;-79
2022/11/08 03:37:15;;;;;;;;;22.00;22.00;;;;;7.94;87.84;99226.78;5033041;28;45652;-79
2022/11/08 03:39:41;;;;;;;;;29.67;23.67;;;;;7.89;88.02;99234.78;5028720;28;46211;-79
2022/11/08 03:42:06;;;;;;;;;7.67;5.67;;;;;7.88;87.54;99224.31;5024233;28;45370;-79
2022/11/08 03:44:32;;;;;;;;;23.67;22.00;;;;;7.87;87.75;99225.25;5037190;28;45439;-79
2022/11/08 03:46:59;;;;;;;;;29.00;25.00;;;;;7.87;88.16;99220.00;5038528;28;45552;-79
2022/11/08 03:49:25;;;;;;;;;22.00;22.00;;;;;7.88;88.26;99237.44;5042105;28;46194;-79
2022/11/08 03:51:51;;;;;;;;;26.00;23.67;;;;;7.88;88.37;99237.44;5032271;28;45410;-79
2022/11/08 03:54:16;;;;;;;;;23.33;20.67;;;;;7.89;88.55;99239.19;5034683;28;45409;-79
2022/11/08 03:56:42;;;;;;;;;25.00;20.33;;;;;7.90;88.58;99233.88;5037097;28;45516;-79
2022/11/08 03:59:07;;;;;;;;;23.33;23.00;;;;;7.88;89.05;99240.06;5035190;28;47236;-79
2022/11/08 04:01:33;;;;;;;;;26.00;23.67;;;;;7.86;88.57;99237.53;5035453;28;45381;-79
2022/11/08 04:03:58;;;;;;;;;28.67;24.00;;;;;7.84;88.30;99228.81;5030438;28;45529;-79
2022/11/08 04:06:24;;;;;;;;;25.67;21.00;;;;;7.84;89.40;99241.09;5034895;28;45617;-79
2022/11/08 04:08:49;;;;;;;;;21.00;20.33;;;;;7.81;89.59;99241.16;5029890;28;45533;-79
2022/11/08 04:16:42;;;;;;;;;23.00;21.67;;;;;7.75;89.63;99238.69;5034978;28;45265;-79
2022/11/08 04:21:53;;;;;;;;;26.33;24.00;;;;;7.75;89.79;99236.06;5036105;28;45408;-79
2022/11/08 04:24:19;;;;;;;;;21.00;19.00;;;;;7.75;89.89;99241.31;5030733;28;45378;-79
2022/11/08 04:26:45;;;;;;;;;23.67;23.33;;;;;7.76;89.89;99246.53;5027009;28;45528;-79
2022/11/08 04:29:12;;;;;;;;;18.00;16.00;;;;;7.79;90.46;99243.81;5035918;28;45544;-79
2022/11/08 04:31:38;;;;;;;;;27.67;25.33;;;;;7.80;89.44;99258.69;5027563;28;45507;-78
2022/11/08 04:34:04;;;;;;;;;29.00;27.00;;;;;7.80;90.43;99256.06;5023798;28;45409;-78
2022/11/08 04:36:29;;;;;;;;;25.33;24.00;;;;;7.82;90.11;99258.63;5019720;28;45387;-79
2022/11/08 04:38:54;;;;;;;;;26.33;26.33;;;;;7.80;90.74;99260.44;5035297;28;45797;-79
2022/11/08 04:41:22;;;;;;;;;26.67;25.00;;;;;7.77;89.64;99264.00;5016095;28;46021;-79
2022/11/08 04:43:48;;;;;;;;;27.00;25.00;;;;;7.75;90.60;99243.94;5032613;28;45368;-79
2022/11/08 04:46:24;;;;;;;;;26.67;24.00;;;;;7.76;90.65;99262.28;5035604;28;45497;-79
2022/11/08 04:48:52;;;;;;;;;27.33;25.00;;;;;7.78;90.58;99252.59;5036068;28;45966;-79
2022/11/08 04:51:23;;;;;;;;;27.67;25.00;;;;;7.80;90.66;99260.44;5033422;28;45452;-79
2022/11/08 04:53:49;;;;;;;;;30.00;27.33;;;;;7.81;90.62;99265.66;5036277;28;45513;-79
2022/11/08 04:56:18;;;;;;;;;29.00;27.33;;;;;7.82;89.90;99267.38;5031456;28;45449;-79
2022/11/08 04:58:46;;;;;;;;;26.00;23.00;;;;;7.84;90.07;99262.09;5034721;28;45712;-80
2022/11/08 05:01:15;;;;;;;;;28.00;23.67;;;;;7.86;90.02;99278.66;5036384;28;45345;-80
2022/11/08 05:03:40;;;;;;;;;26.67;21.00;;;;;7.87;90.15;99256.75;5030904;28;45464;-79
2022/11/08 05:06:10;;;;;;;;;31.67;27.33;;;;;7.88;90.24;99272.44;5028027;28;45568;-80
2022/11/08 05:08:35;;;;;;;;;22.00;20.67;;;;;7.89;89.98;99255.78;5027713;28;45586;-79
2022/11/08 05:11:16;;;;;;;;;23.33;23.33;;;;;7.91;90.47;99266.25;5025394;28;45362;-79
2022/11/08 05:13:42;;;;;;;;;26.33;20.33;;;;;7.93;89.65;99262.69;5024797;28;45345;-80
2022/11/08 05:16:11;;;;;;;;;26.67;20.00;;;;;7.96;89.44;99264.38;5031500;28;45436;-79
2022/11/08 05:18:36;;;;;;;;;13.67;10.67;;;;;7.99;89.26;99266.91;5025243;28;46451;-80
2022/11/08 05:23:47;;;;;;;;;23.33;20.33;;;;;8.02;88.45;99258.97;5035306;28;45314;-80
2022/11/08 05:26:14;;;;;;;;;20.67;20.67;;;;;8.04;88.05;99259.78;5036813;28;45318;-80
2022/11/08 05:28:39;;;;;;;;;23.00;19.33;;;;;8.06;87.22;99260.56;5035041;28;45502;-79
2022/11/08 05:31:06;;;;;;;;;22.00;19.33;;;;;8.05;87.05;99259.72;5021788;28;45357;-80
2022/11/08 05:33:31;;;;;;;;;20.67;19.33;;;;;8.05;87.03;99256.22;5027809;28;45342;-80
2022/11/08 05:36:05;;;;;;;;;21.00;19.33;;;;;8.02;86.95;99270.31;5025205;28;45393;-80
2022/11/08 05:38:30;;;;;;;;;23.67;21.00;;;;;8.01;87.16;99252.84;5023201;28;46846;-80
2022/11/08 05:41:03;;;;;;;;;21.33;20.67;;;;;7.99;87.21;99259.91;5032058;28;45456;-81
2022/11/08 05:43:28;;;;;;;;;23.00;23.00;;;;;7.98;87.00;99271.31;5031583;28;45460;-80
2022/11/08 05:45:54;;;;;;;;;20.00;20.00;;;;;7.97;86.97;99251.19;5044983;28;45467;-79
2022/11/08 05:48:19;;;;;;;;;26.67;23.67;;;;;8.00;86.62;99271.25;5028739;28;46426;-79
2022/11/08 05:50:44;;;;;;;;;25.00;21.33;;;;;7.97;86.81;99263.47;5031233;28;45494;-80
2022/11/08 05:53:11;;;;;;;;;20.33;20.00;;;;;7.97;87.31;99255.59;5024602;28;45452;-80
2022/11/08 05:55:36;;;;;;;;;22.67;21.00;;;;;7.96;87.07;99261.75;5033162;28;45497;-79
2022/11/08 05:58:01;;;;;;;;;27.33;20.33;;;;;7.96;86.94;99259.97;5045733;28;45409;-80
2022/11/08 06:00:27;;;;;;;;;19.00;18.33;;;;;7.96;87.17;99267.84;5034284;28;45390;-79
2022/11/08 06:02:52;;;;;;;;;25.33;23.67;;;;;7.99;87.23;99275.66;5027552;28;45914;-79
2022/11/08 06:05:18;;;;;;;;;29.33;24.00;;;;;8.01;87.19;99275.63;5034893;28;45403;-79
2022/11/08 06:07:43;;;;;;;;;31.00;26.33;;;;;8.04;86.96;99278.16;5025504;28;45412;-79
2022/11/08 06:10:09;;;;;;;;;28.33;23.67;;;;;8.05;86.68;99267.59;5034528;28;45448;-79
2022/11/08 06:12:34;;;;;;;;;23.67;21.67;;;;;8.06;86.90;99290.31;5046924;28;45474;-80
2022/11/08 06:14:59;;;;;;;;;25.33;22.00;;;;;8.07;86.68;99292.03;5030755;28;45517;-80
2022/11/08 06:17:25;;;;;;;;;22.67;20.33;;;;;8.09;86.74;99276.25;5033483;28;45385;-80
2022/11/08 06:19:50;;;;;;;;;27.00;25.67;;;;;8.05;86.88;99290.34;5031920;28;45484;-80
2022/11/08 06:22:15;;;;;;;;;28.33;25.00;;;;;8.03;86.91;99284.31;5034452;28;45472;-79
2022/11/08 06:24:41;;;;;;;;;26.00;23.00;;;;;8.02;86.73;99286.06;5022660;28;45521;-79
2022/11/08 06:27:06;;;;;;;;;26.00;23.00;;;;;8.03;86.73;99294.81;5033970;28;45479;-80
2022/11/08 06:29:31;;;;;;;;;27.33;23.00;;;;;8.04;86.88;99284.25;5028114;28;45264;-80
2022/11/08 06:31:57;;;;;;;;;31.67;28.67;;;;;8.05;86.70;99298.22;5021482;28;45382;-81
2022/11/08 06:34:23;;;;;;;;;30.33;24.67;;;;;8.06;86.69;99289.47;5027608;28;45547;-80
2022/11/08 06:36:49;;;;;;;;;27.67;25.67;;;;;8.09;87.23;99299.88;5032219;28;45459;-80
2022/11/08 06:39:15;;;;;;;;;27.67;21.67;;;;;8.11;86.66;99287.56;5024855;28;45472;-80
2022/11/08 06:41:40;;;;;;;;;26.00;22.67;;;;;8.14;86.73;99289.25;5014700;28;45485;-80
2022/11/08 06:44:05;;;;;;;;;21.00;20.00;;;;;8.17;86.74;99286.56;5031029;28;45507;-79
2022/11/08 06:46:31;;;;;;;;;26.00;21.33;;;;;8.20;86.51;99303.09;5044436;28;45442;-80
2022/11/08 06:48:56;;;;;;;;;29.00;26.00;;;;;8.23;86.48;99307.38;5035270;28;45411;-80
2022/11/08 06:51:21;;;;;;;;;26.67;24.33;;;;;8.25;86.50;99287.19;5029122;28;45691;-79
2022/11/08 06:53:47;;;;;;;;;27.67;24.67;;;;;8.27;86.51;99306.41;5027091;28;45425;-80
2022/11/08 06:56:12;;;;;;;;;25.00;22.67;;;;;8.28;86.46;99303.72;5031181;28;47373;-80
2022/11/08 06:58:38;;;;;;;;;30.00;26.00;;;;;8.32;86.24;99313.28;5032125;28;45482;-80
2022/11/08 07:01:05;;;;;;;;;25.33;24.00;;;;;8.37;86.04;99300.03;5041445;28;45401;-80
2022/11/08 07:03:31;;;;;;;;;28.33;26.33;;;;;8.39;85.80;99306.06;5020683;28;45432;-75
2022/11/08 07:05:57;;;;;;;;;24.67;19.00;;;;;8.46;85.85;99291.00;5032700;28;45751;-70
2022/11/08 07:08:22;;;;;;;;;22.33;19.33;;;;;8.51;85.28;99321.50;5037907;28;45415;-70
2022/11/08 07:10:48;;;;;;;;;23.33;20.67;;;;;8.55;85.08;99317.88;5034726;28;45428;-70
2022/11/08 07:13:13;;;;;;;;;24.67;22.33;;;;;8.60;84.86;99312.50;5045731;28;45563;-69
2022/11/08 07:15:40;;;;;;;;;25.00;23.33;;;;;8.66;84.63;99323.69;5031894;28;46386;-69
2022/11/08 07:18:13;;;;;;;;;25.00;23.67;;;;;8.70;84.47;99325.34;5045759;28;45516;-69
2022/11/08 07:20:39;;;;;;;;;18.33;15.67;;;;;8.74;84.07;99324.31;5024271;28;45438;-69
2022/11/08 07:23:05;;;;;;;;;25.00;22.00;;;;;8.77;83.80;99333.03;5035126;28;45400;-69
2022/11/08 07:25:31;;;;;;;;;29.33;26.67;;;;;8.81;84.13;99345.19;5033393;28;46202;-69
2022/11/08 07:28:01;;;;;;;;;26.33;20.00;;;;;8.80;83.60;99346.06;5033422;28;45552;-69
2022/11/08 07:30:28;;;;;;;;;22.00;22.00;;;;;8.83;83.47;99335.47;5034436;28;45465;-69
2022/11/08 07:32:55;;;;;;;;;35.33;33.00;;;;;8.86;83.17;99344.16;5034332;28;45530;-68
2022/11/08 07:35:21;;;;;;;;;21.00;20.00;;;;;8.90;82.94;99343.13;5034033;28;45520;-69
2022/11/08 07:37:46;;;;;;;;;21.00;21.00;;;;;8.97;83.02;99336.78;5035078;28;45754;-69
2022/11/08 07:40:12;;;;;;;;;26.00;23.00;;;;;9.01;82.55;99335.78;5034166;28;45433;-69
2022/11/08 07:42:39;;;;;;;;;27.00;22.67;;;;;9.05;82.41;99347.06;5035326;28;45424;-69
2022/11/08 07:45:06;;;;;;;;;23.33;21.00;;;;;9.09;82.00;99317.13;5030185;28;46119;-69
2022/11/08 07:47:31;;;;;;;;;26.67;21.67;;;;;9.07;81.58;99340.84;5033185;28;45470;-69
2022/11/08 07:49:57;;;;;;;;;25.00;21.00;;;;;9.04;81.14;99308.56;5045076;28;45391;-69
2022/11/08 07:52:22;;;;;;;;;22.00;20.67;;;;;9.01;81.09;99319.16;5040357;28;45503;-69
2022/11/08 07:54:48;;;;;;;;;20.33;19.33;;;;;9.02;81.08;99320.88;5046800;28;45492;-69
2022/11/08 07:57:13;;;;;;;;;20.67;19.00;;;;;9.07;80.82;99327.69;5038553;28;45454;-68
2022/11/08 07:59:38;;;;;;;;;20.00;18.33;;;;;9.13;80.69;99328.44;5034371;28;45400;-69
2022/11/08 08:02:04;;;;;;;;;19.67;17.00;;;;;9.18;80.76;99340.53;5036562;28;45656;-69
2022/11/08 08:04:29;;;;;;;;;24.00;20.33;;;;;9.26;80.29;99330.63;5034029;28;45370;-68
2022/11/08 08:06:57;;;;;;;;;42.33;36.00;;;;;9.33;80.28;99326.03;5021818;28;45489;-69
2022/11/08 08:09:22;;;;;;;;;24.00;23.67;;;;;9.37;79.99;99335.56;5024531;28;45511;-69
2022/11/08 08:11:48;;;;;;;;;22.00;21.00;;;;;9.41;79.99;99338.03;5035039;28;45503;-68
2022/11/08 08:14:13;;;;;;;;;19.67;19.67;;;;;9.46;79.80;99337.88;5033886;28;45579;-69
2022/11/08 08:16:39;;;;;;;;;21.67;17.67;;;;;9.49;79.46;99329.91;5032564;28;45924;-68
2022/11/08 08:19:05;;;;;;;;;18.67;18.67;;;;;9.55;79.53;99334.94;5030650;28;45501;-69
2022/11/08 08:21:30;;;;;;;;;23.00;19.00;;;;;9.63;79.78;99334.72;5034602;28;45876;-69
2022/11/08 08:23:56;;;;;;;;;19.00;19.00;;;;;9.69;79.09;99335.38;5037989;28;45930;-69
2022/11/08 08:26:21;;;;;;;;;19.00;17.00;;;;;9.75;78.92;99316.72;5034512;28;45381;-69
2022/11/08 08:28:46;;;;;;;;;20.67;18.67;;;;;9.81;78.75;99334.09;5029568;28;45593;-69
2022/11/08 08:31:12;;;;;;;;;18.00;15.00;;;;;9.86;78.48;99332.19;5032681;28;45298;-70
2022/11/08 08:33:37;;;;;;;;;19.33;18.33;;;;;9.91;78.30;99337.28;5032079;28;46050;-69
2022/11/08 08:36:03;;;;;;;;;20.33;16.00;;;;;9.96;77.76;99346.75;5034606;28;45484;-69
2022/11/08 08:38:32;;;;;;;;;17.33;14.67;;;;;10.04;77.68;99325.44;5031383;28;45424;-69
2022/11/08 08:40:59;;;;;;;;;22.00;20.33;;;;;10.08;77.17;99333.16;5031604;28;45514;-69
2022/11/08 08:43:26;;;;;;;;;45.67;36.67;;;;;10.14;77.02;99327.69;5029323;28;45457;-69
2022/11/08 08:45:53;;;;;;;;;14.33;14.00;;;;;10.22;77.19;99326.59;5031587;28;45779;-69
2022/11/08 08:48:19;;;;;;;;;15.33;12.00;;;;;10.30;76.45;99338.56;5032020;28;45499;-68
2022/11/08 08:50:45;;;;;;;;;18.00;17.00;;;;;10.36;76.46;99334.88;5033539;28;45523;-69
2022/11/08 08:53:11;;;;;;;;;23.00;21.00;;;;;10.38;75.97;99326.00;5030828;28;45560;-69
2022/11/08 08:55:38;;;;;;;;;17.50;16.00;;;;;10.43;75.97;99329.31;5035312;28;45530;-69
2022/11/08 08:58:04;;;;;;;;;18.67;15.33;;;;;10.53;75.42;99336.88;5036843;28;45480;-69
2022/11/08 09:00:30;;;;;;;;;16.33;15.67;;;;;10.62;75.43;99342.66;5028840;28;45463;-69
2022/11/08 09:03:04;;;;;;;;;18.00;16.75;;;;;10.72;75.12;99332.66;5032976;28;46101;-69
2022/11/08 09:05:30;;;;;;;;;11.67;11.67;;;;;10.79;75.09;99321.81;5029511;28;45348;-69
2022/11/08 09:07:56;;;;;;;;;17.00;15.33;;;;;10.89;74.44;99327.63;5020530;28;45551;-69
2022/11/08 09:10:21;;;;;;;;;20.67;17.67;;;;;10.98;74.24;99316.69;5032981;28;45524;-69
2022/11/08 09:12:47;;;;;;;;;19.25;18.75;;;;;11.09;73.99;99321.53;5032630;28;46329;-69
2022/11/08 09:15:12;;;;;;;;;17.00;16.67;;;;;11.18;73.76;99316.78;5026621;28;45508;-69
2022/11/08 09:17:41;;;;;;;;;19.67;18.67;;;;;11.29;73.72;99311.06;5033595;28;45700;-70
2022/11/08 09:20:07;;;;;;;;;23.25;21.00;;;;;11.38;73.59;99308.09;5029088;28;45394;-70
2022/11/08 09:22:33;;;;;;;;;18.00;16.50;;;;;11.47;73.45;99310.34;5033256;28;45401;-69
2022/11/08 09:24:59;;;;;;;;;18.00;16.00;;;;;11.56;73.63;99306.47;5031020;28;45346;-69
2022/11/08 09:27:26;;;;;;;;;17.50;16.25;;;;;11.63;72.96;99307.94;5033691;28;45405;-69
2022/11/08 09:29:52;;;;;;;;;17.25;17.00;;;;;11.68;72.07;99299.81;5030423;28;45522;-69
2022/11/08 09:32:17;;;;;;;;;21.00;16.50;;;;;11.69;71.85;99278.63;5034243;28;45432;-71
2022/11/08 09:34:43;;;;;;;;;24.00;19.50;;;;;11.74;71.37;99312.75;5027329;28;45498;-69
2022/11/08 09:37:09;;;;;;;;;21.50;16.75;;;;;11.79;71.47;99279.97;5031426;28;45576;-69
2022/11/08 09:39:34;;;;;;;;;19.00;15.00;;;;;11.81;71.75;99280.78;5031966;28;45480;-70
2022/11/08 09:42:12;;;;;;;;;18.00;16.75;;;;;11.86;71.02;99293.78;5034398;28;45500;-68
2022/11/08 09:44:40;;;;;;;;;14.50;11.50;;;;;11.95;70.37;99303.97;5029622;28;45429;-68
2022/11/08 09:47:36;;;;;;;;;13.75;13.75;;;;;12.10;69.65;99307.72;5019216;28;45422;-70
2022/11/08 09:50:14;;;;;;;;;16.00;15.75;;;;;12.20;70.10;99302.00;5032213;28;45476;-69
2022/11/08 09:52:42;;;;;;;;;16.00;13.50;;;;;12.31;69.15;99284.78;5030877;28;45639;-70
2022/11/08 09:55:21;;;;;;;;;5.50;1.25;;;;;12.36;69.52;99281.03;5032710;28;45423;-70
2022/11/08 09:58:24;;;;;;;;;15.25;12.75;;;;;12.46;69.84;99284.09;5024647;28;45395;-70
2022/11/08 10:00:50;;;;;;;;;22.33;20.00;;;;;12.53;69.36;99288.19;5018104;28;45659;-70
2022/11/08 10:03:17;;;;;;;;;18.00;17.50;;;;;12.65;69.46;99279.69;5032572;28;46371;-72
2022/11/08 10:05:58;;;;;;;;;13.00;12.00;;;;;12.77;69.38;99270.31;5029383;28;45442;-69
2022/11/08 10:08:55;;;;;;;;;14.50;14.25;;;;;12.96;68.63;99275.63;5030065;28;45390;-69
2022/11/08 10:11:43;;;;;;;;;16.00;16.00;;;;;13.12;69.10;99282.75;5033313;28;45509;-69
2022/11/08 10:14:33;;;;;;;;;15.50;14.50;;;;;13.28;68.37;99275.81;5031240;28;47178;-68
2022/11/08 10:17:46;;;;;;;;;19.50;17.50;;;;;13.45;67.65;99276.78;5030772;28;45378;-69
2022/11/08 10:20:19;;;;;;;;;19.50;14.50;;;;;13.61;67.28;99277.72;5023123;28;45415;-69
2022/11/08 10:22:58;;;;;;;;;19.75;15.50;;;;;13.79;67.29;99268.00;5029629;28;45555;-70
2022/11/08 10:25:41;;;;;;;;;16.00;15.00;;;;;13.97;66.87;99272.38;5031033;28;45472;-69
2022/11/08 10:28:10;;;;;;;;;15.50;14.50;;;;;14.18;66.74;99273.91;5030975;28;45495;-69
2022/11/08 10:30:39;;;;;;;;;16.50;14.75;;;;;14.39;65.76;99263.97;5033842;28;45412;-69
2022/11/08 10:33:28;;;;;;;;;18.25;16.00;;;;;14.60;66.62;99254.88;5034003;28;45604;-69
2022/11/08 10:36:32;;;;;;;;;22.00;16.50;;;;;14.90;65.05;99238.22;5031560;28;45488;-69
2022/11/08 10:39:03;;;;;;;;;20.50;18.75;;;;;15.15;64.27;99235.03;5026258;28;45448;-69
2022/11/08 10:41:50;;;;;;;;;20.50;19.25;;;;;15.36;63.83;99226.69;5022225;28;45427;-69
2022/11/08 10:44:19;;;;;;;;;25.00;18.25;;;;;15.57;63.04;99231.75;5030412;28;45500;-69
2022/11/08 10:46:45;;;;;;;;;24.75;20.00;;;;;15.75;62.57;99225.34;5018977;28;47890;-70
2022/11/08 10:49:30;;;;;;;;;10.75;10.75;;;;;15.98;61.21;99221.28;5029478;28;45881;-70
2022/11/08 10:52:11;;;;;;;;;3.60;3.60;;;;;16.13;58.27;99209.72;5031922;28;45462;-71
2022/11/08 10:54:50;;;;;;;;;8.00;6.00;;;;;16.35;59.26;99207.44;5031229;28;45460;-71
2022/11/08 10:57:33;;;;;;;;;4.40;3.80;;;;;16.58;57.85;99207.81;5029975;28;47195;-70
2022/11/08 11:00:26;;;;;;;;;5.80;5.60;;;;;16.79;57.91;99202.94;5038415;28;45484;-70
2022/11/08 11:02:52;;;;;;;;;11.50;9.75;;;;;16.92;58.12;99199.41;5025568;28;45436;-70
2022/11/08 11:05:31;;;;;;;;;5.00;5.00;;;;;17.03;56.98;99204.03;5028935;28;45598;-70
2022/11/08 11:07:59;;;;;;;;;5.00;5.00;;;;;17.16;54.04;99196.94;5025184;28;45428;-69
2022/11/08 11:10:27;;;;;;;;;5.20;4.80;;;;;17.34;56.05;99198.41;5028871;28;45446;-70
2022/11/08 11:13:00;;;;;;;;;6.80;4.60;;;;;17.55;55.18;99192.59;5026634;28;45453;-70
2022/11/08 11:15:35;;;;;;;;;3.50;3.50;;;;;17.75;54.37;99177.00;5025242;28;45561;-70
2022/11/08 11:18:01;;;;;;;;;3.00;3.00;;;;;17.95;53.82;99180.94;5028373;28;45418;-70
2022/11/08 11:20:27;;;;;;;;;3.80;3.20;;;;;18.14;52.58;99169.81;5025183;28;45421;-69
2022/11/08 11:22:53;;;;;;;;;0.20;0.20;;;;;18.33;52.08;99161.38;5031897;28;45525;-70
2022/11/08 11:25:22;;;;;;;;;2.00;2.00;;;;;18.53;52.42;99159.97;5027264;28;45499;-69
2022/11/08 11:27:53;;;;;;;;;4.20;4.00;;;;;18.74;52.43;99169.13;5032479;28;45441;-70
2022/11/08 11:30:24;;;;;;;;;4.60;3.40;;;;;18.97;51.55;99154.91;5027366;28;45583;-70
2022/11/08 11:33:23;;;;;;;;;0.40;0.40;;;;;19.24;53.08;99162.72;5035150;28;45719;-70
2022/11/08 11:35:51;;;;;;;;;3.40;1.40;;;;;19.42;50.12;99157.81;5009346;28;45638;-70
2022/11/08 11:38:51;;;;;;;;;3.00;2.00;;;;;19.59;50.13;99152.06;5021414;28;46735;-68
2022/11/08 11:41:54;;;;;;;;;3.00;3.00;;;;;19.74;49.50;99145.53;5021596;28;45468;-72
2022/11/08 11:44:45;;;;;;;;;4.00;4.00;;;;;19.83;49.26;99142.13;5012939;28;45508;-70
2022/11/08 11:47:36;;;;;;;;;5.00;4.80;;;;;19.93;48.61;99138.75;5013114;28;45415;-71
2022/11/08 11:50:28;;;;;;;;;1.40;1.40;;;;;20.00;48.29;99132.78;5015533;28;46065;-70
2022/11/08 11:52:58;;;;;;;;;1.00;1.00;;;;;20.06;48.20;99137.66;5035476;28;45416;-70